createdAt,value
2023-03-25T00:01:16.614Z,9.49
2023-03-25T00:03:48.067Z,9.31
2023-03-25T00:06:16.651Z,9.54
2023-03-25T00:08:47.266Z,9.56
2023-03-25T00:11:30.499Z,9.69
2023-03-25T00:13:59.414Z,9.78
2023-03-25T00:16:37.322Z,9.68
2023-03-25T00:19:06.733Z,9.54
2023-03-25T00:21:37.379Z,9.67
2023-03-25T00:24:08.361Z,9.44
2023-03-25T00:26:43.320Z,9.59
2023-03-25T00:29:12.334Z,10.04
2023-03-25T00:31:41.091Z,9.99
2023-03-25T00:34:14.688Z,9.77
2023-03-25T00:36:43.943Z,9.95
2023-03-25T00:39:18.164Z,9.67
2023-03-25T00:41:49.224Z,9.65
2023-03-25T00:44:18.154Z,8.05
2023-03-25T00:46:47.614Z,9.23
2023-03-25T00:49:17.870Z,9.68
2023-03-25T00:51:53.084Z,9.78
2023-03-25T00:54:26.502Z,9.70
2023-03-25T00:56:54.748Z,9.78
2023-03-25T00:59:27.360Z,9.83
2023-03-25T01:01:57.590Z,9.78
2023-03-25T01:04:26.853Z,9.82
2023-03-25T01:09:53.070Z,9.89
2023-03-25T01:12:25.440Z,9.76
2023-03-25T01:14:56.672Z,9.90
2023-03-25T01:17:27.648Z,9.84
2023-03-25T01:19:57.831Z,10.09
2023-03-25T01:22:27.135Z,10.58
2023-03-25T01:24:58.478Z,10.63
2023-03-25T01:27:27.303Z,10.43
2023-03-25T01:29:58.105Z,10.09
2023-03-25T01:32:33.717Z,9.95
2023-03-25T01:35:05.533Z,10.22
2023-03-25T01:37:36.722Z,10.46
2023-03-25T01:40:21.217Z,10.33
2023-03-25T01:42:51.756Z,10.72
2023-03-25T01:45:34.585Z,10.50
2023-03-25T01:48:16.319Z,10.11
2023-03-25T01:50:47.000Z,10.71
2023-03-25T01:53:19.212Z,11.03
2023-03-25T01:55:50.628Z,10.47
2023-03-25T01:58:20.111Z,10.49
2023-03-25T02:00:50.343Z,10.16
2023-03-25T02:03:22.388Z,10.37
2023-03-25T02:05:54.635Z,10.14
2023-03-25T02:08:24.094Z,9.87
2023-03-25T02:10:57.813Z,9.98
2023-03-25T02:13:26.956Z,9.84
2023-03-25T02:16:22.718Z,9.65
2023-03-25T02:19:01.486Z,9.85
2023-03-25T02:21:49.426Z,9.46
2023-03-25T02:24:48.628Z,9.52
2023-03-25T02:30:40.832Z,9.98
2023-03-25T02:33:50.478Z,8.68
2023-03-25T02:36:52.882Z,7.36
2023-03-25T02:39:24.088Z,7.79
2023-03-25T02:41:54.920Z,7.49
2023-03-25T02:44:32.776Z,7.91
2023-03-25T02:47:06.520Z,7.57
2023-03-25T02:49:37.797Z,7.81
2023-03-25T02:52:10.614Z,8.15
2023-03-25T02:54:44.220Z,8.20
2023-03-25T02:57:17.606Z,8.24
2023-03-25T02:59:47.501Z,8.53
2023-03-25T03:02:16.737Z,8.54
2023-03-25T03:04:53.592Z,8.27
2023-03-25T03:07:25.739Z,8.51
2023-03-25T03:10:26.190Z,8.51
2023-03-25T03:13:04.649Z,8.17
2023-03-25T03:15:39.910Z,8.28
2023-03-25T03:18:14.847Z,8.53
2023-03-25T03:20:50.941Z,8.47
2023-03-25T03:23:24.590Z,8.25
2023-03-25T03:26:05.561Z,8.61
2023-03-25T03:28:38.044Z,8.34
2023-03-25T03:31:09.586Z,8.77
2023-03-25T03:33:43.386Z,8.61
2023-03-25T03:36:18.630Z,8.42
2023-03-25T03:38:54.570Z,8.66
2023-03-25T03:41:28.601Z,8.46
2023-03-25T03:44:00.231Z,8.33
2023-03-25T03:46:32.737Z,8.76
2023-03-25T03:49:06.234Z,8.74
2023-03-25T03:51:37.840Z,9.06
2023-03-25T03:54:14.177Z,9.33
2023-03-25T03:56:48.059Z,9.29
2023-03-25T03:59:21.860Z,9.22
2023-03-25T04:01:55.948Z,9.33
2023-03-25T04:04:27.260Z,9.66
2023-03-25T04:07:05.863Z,10.01
2023-03-25T04:09:41.908Z,9.56
2023-03-25T04:12:17.206Z,9.77
2023-03-25T04:14:49.199Z,9.73
2023-03-25T04:17:24.488Z,9.96
2023-03-25T04:19:53.839Z,9.68
2023-03-25T04:22:27.819Z,9.88
2023-03-25T04:25:02.456Z,9.51
2023-03-25T04:27:43.361Z,9.40
2023-03-25T04:30:21.460Z,9.80
2023-03-25T04:32:57.448Z,9.78
2023-03-25T04:35:28.718Z,9.46
2023-03-25T04:37:58.140Z,9.71
2023-03-25T04:40:31.251Z,9.24
2023-03-25T04:43:03.626Z,9.28
2023-03-25T04:45:36.921Z,9.26
2023-03-25T04:48:06.374Z,9.07
2023-03-25T04:50:35.015Z,9.11
2023-03-25T04:53:10.571Z,8.90
2023-03-25T04:55:54.815Z,8.75
2023-03-25T04:58:26.141Z,8.68
2023-03-25T05:00:56.869Z,8.78
2023-03-25T05:03:25.114Z,9.16
2023-03-25T05:05:55.535Z,8.96
2023-03-25T05:08:37.978Z,9.08
2023-03-25T05:11:12.502Z,9.15
2023-03-25T05:13:43.559Z,9.30
2023-03-25T05:16:14.521Z,9.73
2023-03-25T05:18:42.761Z,9.50
2023-03-25T05:21:16.627Z,9.49
2023-03-25T05:23:45.597Z,9.80
2023-03-25T05:26:17.541Z,9.47
2023-03-25T05:28:51.622Z,9.50
2023-03-25T05:31:22.888Z,9.63
2023-03-25T05:34:00.224Z,8.83
2023-03-25T05:36:30.017Z,9.42
2023-03-25T05:39:30.151Z,9.27
2023-03-25T05:44:52.548Z,9.41
2023-03-25T05:47:23.605Z,9.29
2023-03-25T05:49:54.343Z,9.42
2023-03-25T05:52:27.408Z,9.42
2023-03-25T05:54:55.912Z,9.15
2023-03-25T05:57:28.270Z,9.11
2023-03-25T06:00:05.534Z,9.04
2023-03-25T06:02:42.131Z,9.19
2023-03-25T06:05:16.117Z,8.94
2023-03-25T06:07:47.065Z,9.08
2023-03-25T06:10:38.466Z,8.77
2023-03-25T06:13:07.873Z,8.74
2023-03-25T06:15:46.668Z,9.22
2023-03-25T06:18:15.107Z,9.84
2023-03-25T06:20:47.832Z,9.74
2023-03-25T06:23:42.343Z,9.15
2023-03-25T06:26:12.001Z,9.74
2023-03-25T06:28:44.770Z,8.93
2023-03-25T06:31:28.428Z,9.39
2023-03-25T06:34:01.882Z,9.29
2023-03-25T06:36:33.599Z,9.78
2023-03-25T06:39:04.579Z,9.61
2023-03-25T06:41:39.918Z,9.96
2023-03-25T06:44:07.786Z,10.16
2023-03-25T06:46:47.691Z,10.02
2023-03-25T06:49:16.624Z,10.36
2023-03-25T06:51:48.692Z,10.44
2023-03-25T06:54:23.063Z,10.07
2023-03-25T06:56:53.850Z,10.06
2023-03-25T06:59:25.767Z,9.93
2023-03-25T07:01:57.805Z,9.75
2023-03-25T07:07:53.070Z,9.39
2023-03-25T07:10:25.073Z,9.82
2023-03-25T07:12:58.078Z,9.52
2023-03-25T07:15:32.680Z,9.51
2023-03-25T07:18:03.105Z,9.60
2023-03-25T07:20:33.228Z,9.73
2023-03-25T07:23:03.995Z,9.48
2023-03-25T07:25:35.489Z,9.62
2023-03-25T07:28:06.453Z,9.51
2023-03-25T07:30:36.269Z,10.00
2023-03-25T07:33:12.051Z,10.29
2023-03-25T07:35:41.646Z,10.05
2023-03-25T07:38:12.770Z,10.37
2023-03-25T07:40:41.745Z,10.03
2023-03-25T07:43:10.059Z,10.38
2023-03-25T07:45:44.609Z,10.34
2023-03-25T07:48:17.945Z,9.97
2023-03-25T07:50:46.628Z,10.19
2023-03-25T07:53:17.831Z,10.49
2023-03-25T07:55:52.514Z,10.11
2023-03-25T07:58:21.798Z,10.29
2023-03-25T08:00:51.480Z,9.88
2023-03-25T08:03:22.284Z,10.45
2023-03-25T08:05:55.948Z,10.58
2023-03-25T08:08:31.512Z,10.69
2023-03-25T08:11:09.176Z,10.76
2023-03-25T08:13:38.543Z,10.45
2023-03-25T08:16:12.255Z,10.17
2023-03-25T08:18:49.227Z,10.72
2023-03-25T08:21:17.541Z,10.10
2023-03-25T08:23:46.073Z,10.63
2023-03-25T08:26:17.472Z,10.55
2023-03-25T08:28:47.605Z,10.59
2023-03-25T08:31:15.882Z,10.79
2023-03-25T08:33:46.014Z,10.63
2023-03-25T08:36:20.169Z,10.48
2023-03-25T08:38:52.605Z,9.90
2023-03-25T08:41:20.810Z,9.72
2023-03-25T08:43:49.106Z,10.09
2023-03-25T08:46:17.687Z,10.05
2023-03-25T08:48:56.124Z,10.34
2023-03-25T08:51:24.684Z,9.51
2023-03-25T08:53:54.420Z,9.70
2023-03-25T08:56:26.387Z,9.15
2023-03-25T08:58:58.340Z,9.15
2023-03-25T09:01:30.433Z,9.37
2023-03-25T09:04:05.596Z,9.76
2023-03-25T09:06:47.819Z,9.73
2023-03-25T09:09:26.242Z,10.12
2023-03-25T09:11:55.050Z,10.47
2023-03-25T09:14:42.485Z,10.15
2023-03-25T09:17:11.293Z,9.91
2023-03-25T09:19:41.659Z,9.99
2023-03-25T09:22:17.385Z,9.83
2023-03-25T09:24:46.036Z,9.40
2023-03-25T09:27:22.028Z,9.63
2023-03-25T09:29:50.577Z,10.08
2023-03-25T09:32:23.370Z,10.17
2023-03-25T09:37:51.919Z,10.16
2023-03-25T09:40:24.785Z,10.63
2023-03-25T09:43:02.155Z,10.55
2023-03-25T09:45:37.791Z,10.38
2023-03-25T09:48:14.927Z,10.82
2023-03-25T09:50:52.731Z,10.51
2023-03-25T09:53:31.400Z,10.70
2023-03-25T09:56:20.549Z,10.80
2023-03-25T09:59:00.151Z,10.83
2023-03-25T10:01:41.683Z,11.23
2023-03-25T10:04:38.826Z,11.00
2023-03-25T10:07:35.102Z,10.77
2023-03-25T10:12:23.737Z,11.20
2023-03-25T10:13:48.654Z,11.33
2023-03-25T10:16:27.799Z,11.14
2023-03-25T10:19:20.288Z,10.94
2023-03-25T10:21:57.810Z,11.67
2023-03-25T10:24:40.060Z,11.39
2023-03-25T10:27:20.145Z,11.20
2023-03-25T10:29:52.366Z,11.88
2023-03-25T10:32:39.438Z,12.33
2023-03-25T10:35:11.693Z,12.16
2023-03-25T10:37:44.948Z,12.66
2023-03-25T10:40:25.530Z,12.01
2023-03-25T10:43:09.615Z,11.48
2023-03-25T10:45:39.934Z,11.54
2023-03-25T10:48:14.921Z,11.91
2023-03-25T10:50:48.963Z,11.69
2023-03-25T10:53:37.780Z,11.29
2023-03-25T10:56:10.667Z,11.76
2023-03-25T10:58:41.802Z,11.86
2023-03-25T11:01:13.611Z,12.16
2023-03-25T11:03:44.651Z,12.00
2023-03-25T11:06:24.516Z,11.65
2023-03-25T11:09:28.626Z,11.30
2023-03-25T11:12:01.313Z,11.56
2023-03-25T11:14:34.816Z,11.48
2023-03-25T11:17:17.545Z,11.14
2023-03-25T11:19:53.748Z,11.28
2023-03-25T11:22:31.353Z,11.55
2023-03-25T11:25:05.921Z,11.47
2023-03-25T11:27:47.741Z,11.08
2023-03-25T11:30:20.967Z,12.04
2023-03-25T11:33:01.725Z,12.63
2023-03-25T11:35:46.268Z,12.45
2023-03-25T11:38:17.642Z,12.40
2023-03-25T11:40:55.061Z,12.03
2023-03-25T11:43:30.473Z,11.89
2023-03-25T11:46:10.876Z,12.05
2023-03-25T11:48:41.465Z,12.02
2023-03-25T11:51:14.801Z,11.36
2023-03-25T11:53:49.707Z,11.29
2023-03-25T11:56:23.358Z,11.12
2023-03-25T11:58:57.442Z,11.18
2023-03-25T12:01:32.829Z,11.63
2023-03-25T12:04:19.876Z,11.72
2023-03-25T12:07:04.528Z,12.04
2023-03-25T12:09:33.745Z,12.19
2023-03-25T12:12:12.460Z,12.05
2023-03-25T12:14:52.090Z,12.15
2023-03-25T12:17:24.450Z,12.61
2023-03-25T12:20:05.434Z,12.56
2023-03-25T12:22:47.226Z,11.86
2023-03-25T12:25:30.053Z,11.37
2023-03-25T12:28:16.461Z,11.39
2023-03-25T12:30:58.088Z,11.03
2023-03-25T12:33:45.075Z,9.34
2023-03-25T12:36:31.467Z,10.17
2023-03-25T12:39:11.216Z,10.29
2023-03-25T12:41:47.664Z,10.87
2023-03-25T12:44:27.579Z,11.50
2023-03-25T12:47:20.946Z,11.87
2023-03-25T12:50:06.979Z,12.13
2023-03-25T12:52:48.259Z,12.47
2023-03-25T12:55:30.284Z,12.21
2023-03-25T12:58:19.148Z,12.56
2023-03-25T13:00:52.426Z,12.45
2023-03-25T13:03:43.635Z,11.91
2023-03-25T13:06:20.628Z,11.78
2023-03-25T13:08:55.552Z,12.44
2023-03-25T13:11:29.206Z,12.38
2023-03-25T13:13:59.735Z,12.38
2023-03-25T13:16:31.694Z,11.74
2023-03-25T13:19:08.533Z,11.59
2023-03-25T13:21:45.802Z,11.81
2023-03-25T13:24:18.334Z,11.98
2023-03-25T13:26:51.704Z,12.07
2023-03-25T13:29:27.994Z,12.90
2023-03-25T13:32:00.852Z,12.50
2023-03-25T13:34:36.634Z,12.69
2023-03-25T13:37:10.208Z,12.57
2023-03-25T13:39:54.866Z,12.87
2023-03-25T13:42:31.788Z,12.80
2023-03-25T13:45:00.440Z,12.07
2023-03-25T13:47:37.258Z,11.41
2023-03-25T13:50:15.924Z,12.27
2023-03-25T13:52:49.364Z,12.46
2023-03-25T13:55:21.390Z,12.35
2023-03-25T13:58:19.560Z,12.20
2023-03-25T14:01:07.218Z,11.53
2023-03-25T14:04:12.314Z,11.41
2023-03-25T14:07:14.635Z,9.94
2023-03-25T14:10:09.308Z,12.19
2023-03-25T14:12:39.367Z,12.50
2023-03-25T14:15:12.709Z,12.88
2023-03-25T14:17:45.846Z,12.35
2023-03-25T14:20:26.322Z,12.93
2023-03-25T14:23:01.264Z,13.00
2023-03-25T14:25:34.272Z,12.75
2023-03-25T14:28:05.678Z,13.11
2023-03-25T14:30:38.651Z,12.89
2023-03-25T14:33:11.886Z,13.13
2023-03-25T14:35:53.011Z,13.74
2023-03-25T14:38:59.612Z,13.93
2023-03-25T14:42:07.356Z,14.02
2023-03-25T14:44:51.875Z,14.47
2023-03-25T14:47:35.479Z,14.56
2023-03-25T14:50:09.932Z,14.29
2023-03-25T14:52:41.503Z,15.47
2023-03-25T14:55:21.950Z,14.72
2023-03-25T14:57:56.778Z,14.52
2023-03-25T15:00:31.762Z,14.47
2023-03-25T15:03:03.309Z,15.03
2023-03-25T15:05:34.361Z,15.12
2023-03-25T15:08:14.717Z,14.47
2023-03-25T15:10:54.274Z,14.42
2023-03-25T15:13:28.739Z,13.94
2023-03-25T15:16:03.577Z,14.18
2023-03-25T15:19:15.782Z,14.58
2023-03-25T15:22:11.815Z,14.67
2023-03-25T15:24:49.816Z,14.74
2023-03-25T15:27:39.959Z,14.84
2023-03-25T15:30:21.241Z,14.17
2023-03-25T15:32:59.989Z,14.62
2023-03-25T15:35:41.185Z,15.04
2023-03-25T15:38:31.001Z,14.85
2023-03-25T15:41:11.965Z,15.04
2023-03-25T15:44:13.732Z,14.17
2023-03-25T15:47:06.741Z,14.40
2023-03-25T15:50:15.540Z,14.23
2023-03-25T15:53:32.608Z,14.15
2023-03-25T15:56:11.197Z,14.10
2023-03-25T15:58:46.296Z,13.47
2023-03-25T16:01:28.882Z,13.79
2023-03-25T16:04:03.520Z,13.78
2023-03-25T16:06:36.069Z,13.31
2023-03-25T16:09:11.260Z,13.26
2023-03-25T16:11:44.171Z,13.25
2023-03-25T16:17:07.562Z,13.53
2023-03-25T16:19:40.044Z,13.55
2023-03-25T16:22:19.670Z,13.77
2023-03-25T16:24:52.872Z,13.54
2023-03-25T16:27:25.060Z,13.30
2023-03-25T16:29:54.585Z,13.38
2023-03-25T16:32:28.283Z,13.00
2023-03-25T16:34:59.241Z,13.19
2023-03-25T16:37:34.464Z,12.93
2023-03-25T16:40:08.172Z,13.42
2023-03-25T16:42:38.045Z,13.21
2023-03-25T16:45:10.058Z,13.34
2023-03-25T16:47:41.706Z,13.18
2023-03-25T16:50:19.667Z,13.04
2023-03-25T16:52:49.763Z,12.83
2023-03-25T16:55:33.000Z,12.83
2023-03-25T16:58:05.376Z,13.32
2023-03-25T17:00:44.441Z,12.80
2023-03-25T17:03:22.255Z,12.75
2023-03-25T17:05:57.352Z,13.10
2023-03-25T17:08:27.049Z,12.47
2023-03-25T17:10:58.099Z,12.48
2023-03-25T17:13:30.033Z,12.49
2023-03-25T17:16:03.841Z,12.51
2023-03-25T17:18:38.110Z,12.29
2023-03-25T17:21:14.306Z,12.72
2023-03-25T17:23:48.955Z,12.59
2023-03-25T17:26:25.178Z,12.76
2023-03-25T17:29:03.190Z,12.48
2023-03-25T17:31:42.373Z,12.77
2023-03-25T17:34:16.562Z,12.61
2023-03-25T17:39:45.641Z,12.53
2023-03-25T17:42:23.742Z,12.68
2023-03-25T17:44:52.787Z,12.26
2023-03-25T17:47:22.095Z,12.56
2023-03-25T17:49:54.074Z,12.85
2023-03-25T17:52:23.855Z,12.35
2023-03-25T17:54:54.180Z,12.46
2023-03-25T17:57:25.736Z,12.32
2023-03-25T17:59:57.933Z,12.12
2023-03-25T18:02:26.627Z,12.16
2023-03-25T18:05:06.457Z,12.08
2023-03-25T18:07:35.375Z,11.97
2023-03-25T18:10:05.367Z,11.95
2023-03-25T18:12:34.312Z,11.80
2023-03-25T18:15:07.792Z,11.65
2023-03-25T18:17:41.757Z,11.54
2023-03-25T18:20:21.487Z,11.47
2023-03-25T18:22:49.893Z,11.33
2023-03-25T18:25:18.531Z,11.60
2023-03-25T18:27:53.946Z,11.52
2023-03-25T18:30:26.316Z,11.19
2023-03-25T18:32:55.622Z,11.21
2023-03-25T18:35:28.249Z,10.81
2023-03-25T18:37:58.358Z,11.07
2023-03-25T18:40:31.013Z,11.11
2023-03-25T18:43:02.574Z,11.48
2023-03-25T18:45:30.749Z,11.65
2023-03-25T18:47:58.958Z,11.34
2023-03-25T18:50:33.755Z,11.60
2023-03-25T18:53:04.938Z,11.62
2023-03-25T18:55:34.465Z,11.93
2023-03-25T18:58:04.670Z,12.26
2023-03-25T19:01:06.553Z,12.02
2023-03-25T19:03:41.170Z,12.15
2023-03-25T19:06:30.918Z,11.73
2023-03-25T19:09:02.943Z,11.70
2023-03-25T19:11:36.495Z,11.89
2023-03-25T19:14:04.557Z,11.43
2023-03-25T19:16:36.844Z,11.38
2023-03-25T19:19:07.864Z,11.15
2023-03-25T19:21:47.606Z,11.20
2023-03-25T19:24:16.296Z,10.55
2023-03-25T19:26:49.185Z,9.99
2023-03-25T19:29:17.703Z,9.87
2023-03-25T19:31:46.873Z,9.65
2023-03-25T19:34:17.022Z,9.76
2023-03-25T19:36:50.402Z,9.80
2023-03-25T19:39:25.947Z,9.78
2023-03-25T19:41:55.407Z,9.95
2023-03-25T19:44:25.428Z,9.80
2023-03-25T19:46:55.425Z,9.88
2023-03-25T19:49:39.164Z,9.80
2023-03-25T19:52:16.981Z,9.84
2023-03-25T19:54:45.435Z,9.88
2023-03-25T19:57:14.755Z,9.66
2023-03-25T19:59:48.135Z,10.11
2023-03-25T20:02:18.204Z,10.14
2023-03-25T20:04:48.420Z,9.83
2023-03-25T20:07:24.130Z,9.82
2023-03-25T20:09:54.969Z,9.49
2023-03-25T20:12:29.111Z,9.94
2023-03-25T20:14:58.307Z,9.91
2023-03-25T20:17:29.966Z,10.05
2023-03-25T20:20:08.500Z,9.84
2023-03-25T20:22:48.339Z,9.96
2023-03-25T20:25:24.158Z,10.10
2023-03-25T20:27:55.022Z,10.01
2023-03-25T20:30:32.224Z,10.03
2023-03-25T20:33:07.006Z,10.09
2023-03-25T20:35:38.619Z,9.99
2023-03-25T20:38:10.522Z,9.82
2023-03-25T20:40:44.476Z,9.50
2023-03-25T20:43:16.721Z,9.81
2023-03-25T20:45:50.153Z,9.66
2023-03-25T20:48:23.537Z,9.61
2023-03-25T20:50:53.017Z,9.68
2023-03-25T20:53:24.570Z,9.00
2023-03-25T20:55:57.227Z,9.96
2023-03-25T20:58:29.896Z,9.87
2023-03-25T21:01:01.373Z,9.74
2023-03-25T21:03:32.842Z,9.80
2023-03-25T21:06:10.377Z,9.72
2023-03-25T21:08:45.075Z,9.65
2023-03-25T21:11:14.444Z,9.77
2023-03-25T21:13:43.627Z,9.65
2023-03-25T21:16:13.303Z,9.66
2023-03-25T21:18:42.750Z,9.72
2023-03-25T21:21:14.623Z,9.47
2023-03-25T21:23:45.841Z,9.62
2023-03-25T21:26:16.724Z,9.77
2023-03-25T21:28:48.998Z,9.50
2023-03-25T21:31:23.466Z,9.30
2023-03-25T21:33:57.939Z,9.55
2023-03-25T21:36:31.576Z,9.62
2023-03-25T21:39:03.688Z,9.51
2023-03-25T21:41:35.363Z,9.82
2023-03-25T21:44:09.866Z,9.91
2023-03-25T21:46:39.201Z,9.78
2023-03-25T21:49:16.339Z,10.07
2023-03-25T21:51:51.339Z,10.67
2023-03-25T21:54:22.150Z,10.75
2023-03-25T21:56:54.752Z,11.09
2023-03-25T21:59:26.198Z,10.45
2023-03-25T22:01:58.055Z,10.69
2023-03-25T22:04:27.561Z,11.21
2023-03-25T22:06:56.800Z,11.36
2023-03-25T22:09:31.098Z,9.94
2023-03-25T22:11:59.699Z,9.43
2023-03-25T22:14:28.520Z,9.51
2023-03-25T22:16:57.566Z,9.77
2023-03-25T22:19:28.348Z,10.00
2023-03-25T22:22:04.324Z,10.11
2023-03-25T22:24:45.160Z,9.99
2023-03-25T22:27:15.056Z,9.19
2023-03-25T22:29:43.705Z,9.09
2023-03-25T22:32:12.163Z,9.00
2023-03-25T22:34:43.988Z,8.84
2023-03-25T22:37:12.685Z,8.89
2023-03-25T22:40:00.521Z,9.58
2023-03-25T22:42:33.020Z,8.84
2023-03-25T22:45:07.118Z,9.10
2023-03-25T22:47:37.258Z,9.60
2023-03-25T22:50:05.948Z,9.19
2023-03-25T22:52:34.466Z,9.68
2023-03-25T22:55:07.929Z,9.58
2023-03-25T22:57:39.129Z,9.42
2023-03-25T23:00:14.918Z,9.94
2023-03-25T23:02:44.418Z,9.99
2023-03-25T23:05:17.693Z,10.18
2023-03-25T23:07:45.847Z,10.25
2023-03-25T23:10:21.425Z,10.50
2023-03-25T23:12:52.026Z,10.14
2023-03-25T23:15:23.516Z,10.01
2023-03-25T23:17:56.654Z,9.84
2023-03-25T23:20:27.415Z,9.84
2023-03-25T23:22:59.112Z,10.09
2023-03-25T23:25:29.850Z,10.43
2023-03-25T23:28:07.406Z,10.57
2023-03-25T23:30:36.140Z,10.32
2023-03-25T23:33:05.802Z,9.93
2023-03-25T23:35:35.646Z,10.16
2023-03-25T23:38:18.249Z,10.17
2023-03-25T23:40:58.702Z,10.07
2023-03-25T23:43:28.039Z,9.88
2023-03-25T23:45:59.055Z,10.49
2023-03-25T23:48:29.352Z,10.14
2023-03-25T23:50:59.702Z,10.30
2023-03-25T23:53:31.191Z,10.36
2023-03-25T23:56:04.312Z,10.57
2023-03-25T23:58:33.489Z,10.12
